Terminal Aerodrome Forecast
Issued by NWS

Home | Current Version | Previous Version | Text Only | Print | Product List | Glossary On
Versions: 1 2 3 4 5 6 7 8 9 10 11 12 13 14 15 16
260
FTUS44 KLZK 231725
TAFHOT
TAF
KHOT 231725Z 2318/2418 18008G16KT P6SM BKN050 BKN250
     FM240100 17008G15KT P6SM SCT050 BKN250 WS020/19045KT
     FM241000 17010G18KT P6SM VCSH BKN050 OVC150 WS020/19040KT
     FM241500 18012G20KT P6SM VCTS BKN025CB OVC120=

USA.gov is the U.S. government's official web portal to all federal, state and local government web resources and services.